Time;durP1;ratioP1;P1;durP2;ratioP2;P2;SDS_P1;SDS_P2;PMS_P1;PMS_P2;Temp;Humidity;BMP_temperature;BMP_pressure;BME280_temperature;BME280_humidity;BME280_pressure;Samples;Min_cycle;Max_cycle;Signal;HPM_P1;HPM_P2
2021/11/09 00:00:42;;;;;;;;;;;;;;;16.58;nan;100837.53;5034634;28;20032;-33
2021/11/09 00:03:10;;;;;;;;;;;;;;;16.58;nan;100842.91;5034409;28;19916;-33
2021/11/09 00:05:45;;;;;;;;;;;;;;;16.58;nan;100846.44;5038205;28;20001;-33
2021/11/09 00:08:14;;;;;;;;;;;;;;;16.58;nan;100849.13;5034519;28;20318;-34
2021/11/09 00:10:40;;;;;;;;;;;;;;;16.58;nan;100842.91;5034501;28;19909;-33
2021/11/09 00:13:05;;;;;;;;;;;;;;;16.57;nan;100841.19;5052566;28;20074;-33
2021/11/09 00:15:32;;;;;;;;;;;;;;;16.58;nan;100853.63;5052680;28;19913;-33
2021/11/09 00:17:58;;;;;;;;;;;;;;;16.55;nan;100846.63;5037390;28;19920;-34
2021/11/09 00:20:26;;;;;;;;;;;;;;;16.53;nan;100845.88;5033983;28;19916;-33
2021/11/09 00:22:52;;;;;;;;;;;;;;;16.54;nan;100847.59;5034144;28;20290;-33
2021/11/09 00:25:18;;;;;;;;;;;;;;;16.54;nan;100847.59;5046285;28;19916;-33
2021/11/09 00:27:44;;;;;;;;;;;;;;;16.54;nan;100855.66;5054324;28;20056;-33
2021/11/09 00:30:10;;;;;;;;;;;;;;;16.54;nan;100858.31;5053901;28;20377;-33
2021/11/09 00:32:38;;;;;;;;;;;;;;;16.53;nan;100861.97;5054065;28;20297;-33
2021/11/09 00:35:04;;;;;;;;;;;;;;;16.54;nan;100858.31;5050527;28;20346;-33
2021/11/09 00:37:30;;;;;;;;;;;;;;;16.53;nan;100861.97;5053872;28;19913;-33
2021/11/09 00:39:55;;;;;;;;;;;;;;;16.53;nan;100856.63;5053778;28;19909;-33
2021/11/09 00:42:20;;;;;;;;;;;;;;;16.53;nan;100867.34;5053751;28;19915;-33
2021/11/09 00:44:46;;;;;;;;;;;;;;;16.50;nan;100864.00;5042955;28;19917;-33
2021/11/09 00:47:11;;;;;;;;;;;;;;;16.50;nan;100862.16;5032524;28;19916;-33
2021/11/09 00:49:37;;;;;;;;;;;;;;;16.50;nan;100862.16;5033575;28;20301;-33
2021/11/09 00:52:03;;;;;;;;;;;;;;;16.49;nan;100849.72;5033582;28;19915;-33
2021/11/09 00:54:28;;;;;;;;;;;;;;;16.48;nan;100848.00;5038091;28;20300;-33
2021/11/09 00:56:54;;;;;;;;;;;;;;;16.47;nan;100846.25;5033594;28;20011;-33
2021/11/09 00:59:19;;;;;;;;;;;;;;;16.49;nan;100843.50;5033340;28;19913;-34
2021/11/09 01:01:44;;;;;;;;;;;;;;;16.47;nan;100840.03;5033310;28;19908;-33
2021/11/09 01:04:10;;;;;;;;;;;;;;;16.48;nan;100841.75;5034395;28;19928;-33
2021/11/09 01:06:36;;;;;;;;;;;;;;;16.47;nan;100846.25;5033436;28;19909;-33
2021/11/09 01:09:02;;;;;;;;;;;;;;;16.45;nan;100848.19;5033419;28;19909;-33
2021/11/09 01:11:28;;;;;;;;;;;;;;;16.47;nan;100851.63;5033211;28;19916;-33
2021/11/09 01:13:54;;;;;;;;;;;;;;;16.46;nan;100846.34;5046964;28;19913;-33
2021/11/09 01:16:19;;;;;;;;;;;;;;;16.45;nan;100856.22;5033385;28;20007;-33
2021/11/09 01:18:52;;;;;;;;;;;;;;;16.44;nan;100846.44;5033253;28;19909;-33
2021/11/09 01:21:18;;;;;;;;;;;;;;;16.44;nan;100850.94;5031662;28;19909;-32
2021/11/09 01:23:49;;;;;;;;;;;;;;;16.44;nan;100851.81;5031578;28;19909;-33
2021/11/09 01:26:15;;;;;;;;;;;;;;;16.43;nan;100851.91;5034003;28;19932;-33
2021/11/09 01:28:41;;;;;;;;;;;;;;;16.44;nan;100845.56;5033151;28;19909;-33
2021/11/09 01:31:08;;;;;;;;;;;;;;;16.42;nan;100856.41;5032609;28;19920;-33
2021/11/09 01:33:33;;;;;;;;;;;;;;;16.41;nan;100856.50;5032989;28;20003;-33
2021/11/09 01:35:59;;;;;;;;;;;;;;;16.41;nan;100857.38;5048956;28;20441;-33
2021/11/09 01:38:25;;;;;;;;;;;;;;;16.40;nan;100855.63;5052714;28;20015;-33
2021/11/09 01:40:50;;;;;;;;;;;;;;;16.39;nan;100853.91;5037857;28;19909;-33
2021/11/09 01:43:17;;;;;;;;;;;;;;;16.39;nan;100861.97;5032639;28;19952;-33
2021/11/09 01:45:44;;;;;;;;;;;;;;;16.40;nan;100857.47;5033777;28;19939;-33
2021/11/09 01:48:10;;;;;;;;;;;;;;;16.37;nan;100858.53;5032581;28;20007;-33
2021/11/09 01:50:39;;;;;;;;;;;;;;;16.37;nan;100855.84;5032327;28;19959;-33
2021/11/09 01:53:06;;;;;;;;;;;;;;;16.38;nan;100852.19;5031155;28;19909;-33
2021/11/09 01:55:32;;;;;;;;;;;;;;;16.38;nan;100859.41;5042421;28;19913;-33
2021/11/09 01:57:58;;;;;;;;;;;;;;;16.37;nan;100854.97;5051342;28;19920;-33
2021/11/09 02:00:26;;;;;;;;;;;;;;;16.36;nan;100853.25;5041063;28;19913;-33
2021/11/09 02:02:52;;;;;;;;;;;;;;;16.36;nan;100856.78;5084524;22;19920;-43
2021/11/09 02:05:19;;;;;;;;;;;;;;;16.36;nan;100843.38;5090142;28;20386;-44
2021/11/09 02:07:48;;;;;;;;;;;;;;;16.37;nan;100845.13;5081195;28;20055;-45
2021/11/09 02:10:14;;;;;;;;;;;;;;;16.36;nan;100847.88;5071860;28;19995;-44
2021/11/09 02:12:40;;;;;;;;;;;;;;;16.34;nan;100845.31;5071439;28;20375;-45
2021/11/09 02:15:07;;;;;;;;;;;;;;;16.35;nan;100847.03;5071657;28;19999;-44
2021/11/09 02:17:35;;;;;;;;;;;;;;;16.35;nan;100852.38;5071780;28;19935;-44
2021/11/09 02:20:01;;;;;;;;;;;;;;;16.34;nan;100842.63;5071878;28;19908;-44
2021/11/09 02:22:27;;;;;;;;;;;;;;;16.35;nan;100844.34;5070973;28;19924;-43
2021/11/09 02:24:52;;;;;;;;;;;;;;;16.35;nan;100844.34;5071702;28;19912;-44
2021/11/09 02:27:17;;;;;;;;;;;;;;;16.34;nan;100842.63;5071249;28;19912;-45
2021/11/09 02:29:43;;;;;;;;;;;;;;;16.35;nan;100838.13;5071705;28;20432;-46
2021/11/09 02:32:09;;;;;;;;;;;;;;;16.32;nan;100831.97;5071237;28;19916;-45
2021/11/09 02:34:34;;;;;;;;;;;;;;;16.33;nan;100831.03;5054497;28;19939;-44
2021/11/09 02:36:59;;;;;;;;;;;;;;;16.32;nan;100836.47;5071331;28;19958;-45
2021/11/09 02:39:25;;;;;;;;;;;;;;;16.32;nan;100831.97;5071902;28;19912;-45
2021/11/09 02:41:50;;;;;;;;;;;;;;;16.32;nan;100823.06;5071274;28;20025;-44
2021/11/09 02:44:16;;;;;;;;;;;;;;;16.33;nan;100814.03;5073440;28;20287;-44
2021/11/09 02:46:51;;;;;;;;;;;;;;;16.34;nan;100813.13;5071527;28;19916;-46
2021/11/09 02:49:30;;;;;;;;;;;;;;;16.33;nan;100808.69;5053214;28;20291;-44
2021/11/09 02:52:00;;;;;;;;;;;;;;;16.34;nan;100805.06;5071586;28;19916;-43
2021/11/09 02:54:29;;;;;;;;;;;;;;;16.34;nan;100807.75;5073073;28;19908;-44
2021/11/09 02:57:00;;;;;;;;;;;;;;;16.33;nan;100812.25;5076223;28;19912;-44
2021/11/09 02:59:40;;;;;;;;;;;;;;;16.33;nan;100819.41;5072389;28;19912;-45
2021/11/09 03:02:15;;;;;;;;;;;;;;;16.34;nan;100810.44;5070906;28;20352;-45
2021/11/09 03:07:39;;;;;;;;;;;;;;;16.33;nan;100800.63;5073723;28;20005;-45
2021/11/09 03:10:13;;;;;;;;;;;;;;;16.32;nan;100801.59;5074751;28;19919;-46
2021/11/09 03:12:39;;;;;;;;;;;;;;;16.34;nan;100807.75;5074326;28;20295;-46
2021/11/09 03:15:07;;;;;;;;;;;;;;;16.34;nan;100807.75;5056327;28;20288;-45
2021/11/09 03:17:52;;;;;;;;;;;;;;;16.33;nan;100796.16;5075181;28;19919;-44
2021/11/09 03:20:29;;;;;;;;;;;;;;;16.33;nan;100793.47;5056713;28;20396;-46
2021/11/09 03:39:59;;;;;;;;;;;;;;;16.32;nan;100788.19;5056461;28;19924;-45
2021/11/09 03:45:09;;;;;;;;;;;;;;;16.28;nan;100792.88;5074585;28;19923;-46
2021/11/09 03:47:40;;;;;;;;;;;;;;;16.28;nan;100781.28;5074461;28;20339;-46
2021/11/09 03:50:07;;;;;;;;;;;;;;;16.29;nan;100781.22;5074430;28;19916;-44
2021/11/09 03:52:40;;;;;;;;;;;;;;;16.28;nan;100770.56;5055963;28;20456;-46
2021/11/09 03:55:06;;;;;;;;;;;;;;;16.28;nan;100778.59;5074894;28;19916;-44
2021/11/09 03:57:36;;;;;;;;;;;;;;;16.28;nan;100771.41;5074458;28;19951;-45
2021/11/09 04:05:10;;;;;;;;;;;;;;;16.28;nan;100775.94;5074465;28;19908;-44
2021/11/09 04:10:54;;;;;;;;;;;;;;;16.27;nan;100776.91;5074615;28;19920;-47
2021/11/09 04:16:40;;;;;;;;;;;;;;;16.25;nan;100765.38;4993279;28;20380;-47
2021/11/09 04:18:49;;;;;;;;;;;;;;;16.24;nan;100761.84;4988898;28;20012;-44
2021/11/09 04:29:57;;;;;;;;;;;;;;;16.23;nan;100757.44;5012204;28;20301;-44
2021/11/09 04:32:23;;;;;;;;;;;;;;;16.22;nan;100761.09;5001407;28;19932;-44
2021/11/09 04:53:49;;;;;;;;;;;;;;;16.19;nan;100779.19;5073707;28;20011;-44
2021/11/09 05:09:42;;;;;;;;;;;;;;;16.14;nan;100781.28;5073462;28;20344;-45
2021/11/09 05:12:07;;;;;;;;;;;;;;;16.14;nan;100789.34;5054846;28;20296;-44
2021/11/09 05:14:33;;;;;;;;;;;;;;;16.14;nan;100794.69;5072893;28;19908;-44
2021/11/09 05:16:59;;;;;;;;;;;;;;;16.14;nan;100789.34;5072914;28;19909;-46
2021/11/09 05:19:25;;;;;;;;;;;;;;;16.14;nan;100794.69;5072943;28;19909;-44
2021/11/09 05:21:50;;;;;;;;;;;;;;;16.13;nan;100782.25;5072745;28;20351;-44
2021/11/09 05:24:15;;;;;;;;;;;;;;;16.11;nan;100785.03;5072641;28;20419;-44
2021/11/09 05:26:41;;;;;;;;;;;;;;;16.10;nan;100788.66;5072686;28;19908;-45
2021/11/09 05:29:07;;;;;;;;;;;;;;;16.11;nan;100797.59;5071807;28;19934;-45
2021/11/09 05:31:33;;;;;;;;;;;;;;;16.09;nan;100793.16;5072552;28;19908;-46
2021/11/09 05:33:58;;;;;;;;;;;;;;;16.10;nan;100796.69;5072461;28;19909;-46
2021/11/09 05:36:38;;;;;;;;;;;;;;;16.09;nan;100808.38;5072632;28;19955;-44
2021/11/09 05:41:37;;;;;;;;;;;;;;;16.09;nan;100819.13;5072340;28;20015;-46
2021/11/09 05:44:03;;;;;;;;;;;;;;;16.08;nan;100823.63;5072263;28;20007;-45
2021/11/09 05:46:29;;;;;;;;;;;;;;;16.08;nan;100826.31;5072470;28;19947;-44
2021/11/09 05:48:54;;;;;;;;;;;;;;;16.07;nan;100832.63;5071977;28;19982;-44
2021/11/09 05:51:20;;;;;;;;;;;;;;;16.07;nan;100835.31;5072067;28;19934;-44
2021/11/09 05:53:46;;;;;;;;;;;;;;;16.06;nan;100830.03;5072315;28;19954;-44
2021/11/09 05:56:11;;;;;;;;;;;;;;;16.06;nan;100833.59;5072300;28;19908;-47
2021/11/09 05:58:37;;;;;;;;;;;;;;;16.05;nan;100845.25;5072304;28;19912;-47
2021/11/09 06:01:02;;;;;;;;;;;;;;;16.05;nan;100837.22;5072288;28;19923;-45
2021/11/09 06:03:28;;;;;;;;;;;;;;;16.05;nan;100826.50;5071894;28;19916;-44
2021/11/09 06:05:54;;;;;;;;;;;;;;;16.03;nan;100831.09;5072018;28;19919;-47
2021/11/09 06:08:20;;;;;;;;;;;;;;;16.03;nan;100830.25;5072172;28;19908;-46
2021/11/09 06:10:45;;;;;;;;;;;;;;;16.03;nan;100836.47;5071888;28;19913;-46
2021/11/09 06:13:11;;;;;;;;;;;;;;;16.03;nan;100847.19;5071936;28;19916;-44
2021/11/09 06:15:36;;;;;;;;;;;;;;;16.01;nan;100846.41;5071904;28;19908;-44
2021/11/09 06:18:02;;;;;;;;;;;;;;;16.01;nan;100848.22;5072236;28;20263;-47
2021/11/09 06:20:27;;;;;;;;;;;;;;;16.01;nan;100858.94;5071903;28;20370;-44
2021/11/09 06:22:53;;;;;;;;;;;;;;;16.00;nan;100855.41;5071805;28;19912;-44
2021/11/09 06:25:22;;;;;;;;;;;;;;;15.99;nan;100860.88;5071783;28;19908;-44
2021/11/09 06:27:47;;;;;;;;;;;;;;;15.99;nan;100856.38;5071804;28;19908;-46
2021/11/09 06:30:13;;;;;;;;;;;;;;;15.98;nan;100854.63;5071673;28;20569;-44
2021/11/09 06:32:39;;;;;;;;;;;;;;;15.97;nan;100862.78;5071754;28;19915;-44
2021/11/09 06:35:05;;;;;;;;;;;;;;;15.97;nan;100869.00;5071656;28;19919;-44
2021/11/09 06:37:33;;;;;;;;;;;;;;;15.98;nan;100873.38;5071698;28;20397;-44
2021/11/09 06:39:58;;;;;;;;;;;;;;;15.97;nan;100873.50;5070806;28;19915;-44
2021/11/09 06:42:23;;;;;;;;;;;;;;;15.97;nan;100885.09;5071146;28;19917;-44
2021/11/09 06:44:49;;;;;;;;;;;;;;;15.96;nan;100878.00;5071638;28;19912;-45
2021/11/09 06:47:14;;;;;;;;;;;;;;;15.96;nan;100885.19;5071001;28;19935;-45
2021/11/09 06:49:39;;;;;;;;;;;;;;;15.94;nan;100890.63;5071475;28;19919;-44
2021/11/09 06:52:05;;;;;;;;;;;;;;;15.95;nan;100896.84;5053244;28;20509;-43
2021/11/09 06:54:30;;;;;;;;;;;;;;;15.94;nan;100901.34;5071370;28;19935;-44
2021/11/09 06:56:56;;;;;;;;;;;;;;;15.93;nan;100905.00;5071373;28;19909;-44
2021/11/09 06:59:21;;;;;;;;;;;;;;;15.95;nan;100904.88;5071333;28;19958;-45
2021/11/09 07:01:47;;;;;;;;;;;;;;;15.94;nan;100903.16;5070886;28;19973;-43
2021/11/09 07:04:13;;;;;;;;;;;;;;;15.92;nan;100910.44;5052230;28;19923;-44
2021/11/09 07:06:39;;;;;;;;;;;;;;;15.93;nan;100909.50;5071099;28;19994;-43
2021/11/09 07:09:04;;;;;;;;;;;;;;;15.94;nan;100911.22;5071184;28;19912;-44
2021/11/09 07:11:29;;;;;;;;;;;;;;;15.93;nan;100920.22;5071039;28;19908;-43
2021/11/09 07:13:55;;;;;;;;;;;;;;;15.92;nan;100918.50;5070626;28;19916;-44
2021/11/09 07:16:22;;;;;;;;;;;;;;;15.92;nan;100940.81;5070844;28;19904;-46
2021/11/09 07:18:50;;;;;;;;;;;;;;;15.92;nan;100938.13;5071285;28;19916;-44
2021/11/09 07:21:16;;;;;;;;;;;;;;;15.93;nan;100947.88;5071262;28;19912;-45
2021/11/09 07:23:41;;;;;;;;;;;;;;;15.92;nan;100942.63;5052627;28;19977;-44
2021/11/09 07:26:06;;;;;;;;;;;;;;;15.91;nan;100952.50;5071037;28;19920;-46
2021/11/09 07:28:32;;;;;;;;;;;;;;;15.91;nan;100949.81;5071155;28;20003;-45
2021/11/09 07:31:00;;;;;;;;;;;;;;;15.91;nan;100948.91;5053202;28;19915;-44
2021/11/09 07:33:26;;;;;;;;;;;;;;;15.92;nan;100956.88;5070843;28;19916;-43
2021/11/09 07:35:51;;;;;;;;;;;;;;;15.90;nan;100956.09;5071140;28;19908;-44
2021/11/09 07:38:17;;;;;;;;;;;;;;;15.91;nan;100957.84;5070901;28;19912;-43
2021/11/09 07:40:44;;;;;;;;;;;;;;;15.90;nan;100969.50;5053014;28;20410;-47
2021/11/09 07:43:09;;;;;;;;;;;;;;;15.91;nan;100965.91;5070443;28;19912;-44
2021/11/09 07:45:35;;;;;;;;;;;;;;;15.91;nan;100971.25;5070093;28;19978;-45
2021/11/09 07:48:01;;;;;;;;;;;;;;;15.91;nan;100959.63;5069383;28;20395;-45
2021/11/09 07:50:29;;;;;;;;;;;;;;;15.91;nan;100963.22;5052775;28;19919;-45
2021/11/09 07:52:58;;;;;;;;;;;;;;;15.92;nan;100961.38;5072031;28;19952;-44
2021/11/09 07:55:24;;;;;;;;;;;;;;;15.92;nan;100964.06;5056063;28;19919;-45
2021/11/09 07:58:01;;;;;;;;;;;;;;;15.91;nan;100963.22;5072666;28;19999;-44
2021/11/09 08:00:37;;;;;;;;;;;;;;;15.92;nan;100962.25;5073804;28;19969;-44
2021/11/09 08:05:34;;;;;;;;;;;;;;;15.93;nan;100961.28;5032094;28;19917;-35
2021/11/09 08:08:09;;;;;;;;;;;;;;;15.93;nan;100955.94;5033749;28;19940;-35
2021/11/09 08:10:35;;;;;;;;;;;;;;;15.95;nan;100955.81;5033453;28;19912;-35
2021/11/09 08:13:00;;;;;;;;;;;;;;;15.95;nan;100945.09;5023814;28;19956;-35
2021/11/09 08:15:26;;;;;;;;;;;;;;;15.94;nan;100944.25;5002275;28;19909;-36
2021/11/09 08:17:51;;;;;;;;;;;;;;;15.94;nan;100944.25;5009954;28;20384;-36
2021/11/09 08:20:18;;;;;;;;;;;;;;;15.94;nan;100954.97;5014259;28;20011;-35
2021/11/09 08:22:43;;;;;;;;;;;;;;;15.93;nan;100947.88;5014364;28;19933;-35
2021/11/09 08:25:08;;;;;;;;;;;;;;;15.95;nan;100937.94;5007320;28;19916;-35
2021/11/09 08:27:34;;;;;;;;;;;;;;;15.95;nan;100951.34;5014241;28;19917;-36
2021/11/09 08:29:59;;;;;;;;;;;;;;;15.95;nan;100956.72;5014173;28;19910;-35
2021/11/09 08:32:26;;;;;;;;;;;;;;;15.97;nan;100954.78;5014207;28;19913;-35
2021/11/09 08:34:51;;;;;;;;;;;;;;;16.00;nan;100946.56;5014063;28;19913;-35
2021/11/09 08:37:18;;;;;;;;;;;;;;;15.99;nan;100960.09;5014130;28;19919;-35
2021/11/09 08:39:44;;;;;;;;;;;;;;;15.99;nan;100963.63;5011917;28;20004;-35
2021/11/09 08:42:13;;;;;;;;;;;;;;;15.99;nan;100957.41;5008763;28;19993;-35
2021/11/09 08:47:46;;;;;;;;;;;;;;;15.98;nan;100961.00;4913095;29;19959;-36
2021/11/09 08:50:13;;;;;;;;;;;;;;;15.99;nan;100960.94;4914536;29;20300;-35
2021/11/09 08:52:39;;;;;;;;;;;;;;;15.99;nan;100960.94;4914952;29;19922;-36
2021/11/09 09:05:51;;;;;;;;;;;;;;;16.01;nan;100958.16;4933378;29;20426;-36
2021/11/09 09:08:17;;;;;;;;;;;;;;;16.02;nan;100952.69;4933635;29;19949;-35
2021/11/09 09:10:43;;;;;;;;;;;;;;;16.02;nan;100963.41;4933784;29;19915;-36
2021/11/09 09:13:08;;;;;;;;;;;;;;;16.01;nan;100959.03;4911873;29;19910;-36
2021/11/09 09:15:36;;;;;;;;;;;;;;;16.01;nan;100974.25;4898335;29;19911;-36
2021/11/09 09:18:03;;;;;;;;;;;;;;;16.02;nan;100975.97;4909278;29;19915;-35
2021/11/09 09:20:41;;;;;;;;;;;;;;;16.02;nan;100979.50;4914597;29;19971;-35
2021/11/09 09:23:18;;;;;;;;;;;;;;;16.01;nan;100975.09;4959166;28;19987;-36
2021/11/09 09:29:03;;;;;;;;;;;;;;;16.02;nan;100973.28;5020195;28;19909;-35
2021/11/09 09:56:16;;;;;;;;;;;;;;;16.05;nan;100989.19;4952547;29;20005;-36
2021/11/09 09:58:42;;;;;;;;;;;;;;;16.04;nan;100993.69;4952279;29;19966;-35
2021/11/09 10:01:07;;;;;;;;;;;;;;;16.06;nan;100997.19;4937562;29;19973;-35
2021/11/09 10:03:36;;;;;;;;;;;;;;;16.05;nan;100992.75;4952010;29;19973;-35
2021/11/09 10:06:02;;;;;;;;;;;;;;;16.06;nan;100986.44;4952102;29;19910;-36
2021/11/09 10:08:37;;;;;;;;;;;;;;;16.06;nan;100991.81;4951989;29;19961;-35
2021/11/09 10:11:02;;;;;;;;;;;;;;;16.06;nan;100997.19;4952092;29;19914;-35
2021/11/09 10:13:38;;;;;;;;;;;;;;;16.08;nan;101000.63;4951878;29;20295;-35
2021/11/09 10:16:03;;;;;;;;;;;;;;;16.08;nan;101002.44;4996577;28;20310;-35
2021/11/09 10:18:31;;;;;;;;;;;;;;;16.08;nan;101002.44;5012333;28;19916;-35
2021/11/09 10:20:58;;;;;;;;;;;;;;;16.09;nan;101007.69;5012518;28;19990;-35
2021/11/09 10:23:25;;;;;;;;;;;;;;;16.09;nan;101004.16;5012267;28;20218;-35
2021/11/09 10:25:52;;;;;;;;;;;;;;;16.11;nan;101006.75;5012214;28;20328;-35
2021/11/09 10:28:22;;;;;;;;;;;;;;;16.09;nan;101002.34;5012354;28;19909;-36
2021/11/09 10:30:50;;;;;;;;;;;;;;;16.11;nan;100998.72;5012202;28;19910;-35
2021/11/09 10:33:16;;;;;;;;;;;;;;;16.09;nan;100996.97;5011053;28;19909;-35
2021/11/09 10:35:43;;;;;;;;;;;;;;;16.11;nan;100991.53;5012337;28;19910;-35
2021/11/09 10:38:10;;;;;;;;;;;;;;;16.11;nan;100993.34;5015239;28;19913;-36
2021/11/09 10:40:36;;;;;;;;;;;;;;;16.11;nan;100996.91;5013451;28;19909;-35
2021/11/09 10:43:04;;;;;;;;;;;;;;;16.11;nan;100999.59;5012163;28;20441;-35
2021/11/09 10:45:33;;;;;;;;;;;;;;;16.12;nan;101005.81;5011140;28;19909;-35
2021/11/09 10:48:01;;;;;;;;;;;;;;;16.12;nan;101003.97;5012297;28;19910;-35
2021/11/09 10:50:29;;;;;;;;;;;;;;;16.14;nan;101003.88;5012057;28;19909;-35
2021/11/09 10:53:19;;;;;;;;;;;;;;;16.13;nan;100991.44;5010756;28;19909;-35
2021/11/09 10:55:58;;;;;;;;;;;;;;;16.12;nan;100995.06;5011922;28;19936;-35
2021/11/09 11:06:16;;;;;;;;;;;;;;;16.14;nan;100985.09;5012123;28;19916;-35
2021/11/09 11:08:42;;;;;;;;;;;;;;;16.14;nan;100990.47;5006742;28;20350;-35
2021/11/09 11:11:18;;;;;;;;;;;;;;;16.14;nan;100990.47;5010491;28;19968;-36
2021/11/09 11:13:44;;;;;;;;;;;;;;;16.15;nan;100989.53;5012109;28;19919;-35
2021/11/09 11:16:11;;;;;;;;;;;;;;;16.16;nan;100992.13;5010192;28;19909;-36
2021/11/09 11:18:41;;;;;;;;;;;;;;;16.16;nan;100988.56;5000489;28;19955;-35
2021/11/09 11:21:07;;;;;;;;;;;;;;;16.16;nan;100986.75;5009910;28;19913;-35
2021/11/09 11:23:34;;;;;;;;;;;;;;;16.16;nan;100981.38;5008346;28;19972;-35
2021/11/09 11:26:00;;;;;;;;;;;;;;;16.17;nan;100976.88;5001435;28;19914;-35
2021/11/09 11:28:25;;;;;;;;;;;;;;;16.16;nan;100970.66;5012324;28;19913;-35
2021/11/09 11:30:52;;;;;;;;;;;;;;;16.17;nan;100976.88;5013919;28;19933;-35
2021/11/09 11:33:18;;;;;;;;;;;;;;;16.18;nan;100975.91;5017411;28;19967;-35
2021/11/09 11:35:43;;;;;;;;;;;;;;;16.17;nan;100974.19;4982038;28;19937;-36
2021/11/09 11:38:09;;;;;;;;;;;;;;;16.18;nan;100975.91;5013464;28;20313;-35
2021/11/09 11:40:34;;;;;;;;;;;;;;;16.18;nan;100978.59;5008686;28;19960;-35
2021/11/09 11:42:59;;;;;;;;;;;;;;;16.18;nan;100984.84;5010181;28;20055;-36
2021/11/09 11:45:25;;;;;;;;;;;;;;;16.19;nan;100975.00;4983890;28;19994;-35
2021/11/09 11:48:07;;;;;;;;;;;;;;;16.19;nan;100970.50;4996211;28;19917;-35
2021/11/09 11:50:39;;;;;;;;;;;;;;;16.20;nan;100965.97;4999076;28;19963;-35
2021/11/09 11:53:05;;;;;;;;;;;;;;;16.20;nan;100969.53;5014064;28;19913;-35
2021/11/09 11:55:30;;;;;;;;;;;;;;;16.20;nan;100965.97;4987518;28;20060;-35
2021/11/09 11:58:04;;;;;;;;;;;;;;;16.21;nan;100962.34;5003613;28;20365;-35
2021/11/09 12:00:30;;;;;;;;;;;;;;;16.21;nan;100959.66;5011373;28;19913;-35
2021/11/09 12:02:56;;;;;;;;;;;;;;;16.23;nan;100973.84;5014324;28;20063;-36
2021/11/09 12:05:41;;;;;;;;;;;;;;;16.21;nan;100970.38;4995118;28;19913;-36
2021/11/09 12:08:11;;;;;;;;;;;;;;;16.22;nan;100964.09;5014457;28;19948;-36
2021/11/09 12:10:42;;;;;;;;;;;;;;;16.22;nan;100966.78;5006052;28;19913;-35
2021/11/09 12:13:10;;;;;;;;;;;;;;;16.22;nan;100961.41;5009336;28;19913;-35
2021/11/09 12:15:54;;;;;;;;;;;;;;;16.23;nan;100960.44;4997045;28;20289;-36
2021/11/09 12:18:32;;;;;;;;;;;;;;;16.24;nan;100959.47;5014604;28;20396;-35
2021/11/09 12:21:03;;;;;;;;;;;;;;;16.23;nan;100953.25;4996720;28;19910;-35
2021/11/09 12:23:30;;;;;;;;;;;;;;;16.23;nan;100958.63;4993990;28;19918;-35
2021/11/09 12:25:55;;;;;;;;;;;;;;;16.23;nan;100945.22;4996532;28;19963;-36
2021/11/09 12:28:30;;;;;;;;;;;;;;;16.23;nan;100945.22;5011875;28;20336;-36
2021/11/09 12:30:55;;;;;;;;;;;;;;;16.25;nan;100950.47;5008752;28;19920;-36
2021/11/09 12:33:20;;;;;;;;;;;;;;;16.23;nan;100939.84;5004540;28;19910;-34
2021/11/09 12:35:51;;;;;;;;;;;;;;;16.25;nan;100942.41;4995135;28;20271;-35
2021/11/09 12:38:20;;;;;;;;;;;;;;;16.26;nan;100954.91;5014069;28;19917;-33
2021/11/09 12:40:46;;;;;;;;;;;;;;;16.26;nan;100949.53;5014003;28;19913;-34
2021/11/09 12:43:14;;;;;;;;;;;;;;;16.25;nan;100945.09;5013757;28;19922;-34
2021/11/09 12:45:51;;;;;;;;;;;;;;;16.25;nan;100948.63;4995212;28;20573;-35
2021/11/09 12:48:22;;;;;;;;;;;;;;;16.25;nan;100950.47;5013462;28;19913;-35
2021/11/09 12:50:54;;;;;;;;;;;;;;;16.26;nan;100949.53;4995758;28;20341;-36
2021/11/09 12:53:22;;;;;;;;;;;;;;;16.25;nan;100955.81;4992188;28;19910;-35
2021/11/09 12:56:00;;;;;;;;;;;;;;;16.25;nan;100947.78;5009487;28;19909;-36
2021/11/09 12:58:26;;;;;;;;;;;;;;;16.25;nan;100953.16;5006050;28;20162;-36
2021/11/09 13:01:01;;;;;;;;;;;;;;;16.25;nan;100947.78;4998279;28;20290;-35
2021/11/09 13:03:43;;;;;;;;;;;;;;;16.25;nan;100950.47;5000108;28;19924;-35
2021/11/09 13:06:21;;;;;;;;;;;;;;;16.25;nan;100945.09;5010863;28;20232;-35
2021/11/09 13:09:03;;;;;;;;;;;;;;;16.25;nan;100947.78;5013821;28;19936;-35
2021/11/09 13:11:31;;;;;;;;;;;;;;;16.26;nan;100949.53;4998283;28;20394;-36
2021/11/09 13:14:06;;;;;;;;;;;;;;;16.25;nan;100956.69;4994370;28;19913;-35
2021/11/09 13:16:32;;;;;;;;;;;;;;;16.27;nan;100961.97;4993210;28;19909;-35
2021/11/09 13:19:06;;;;;;;;;;;;;;;16.27;nan;100959.31;4999742;28;19920;-36
2021/11/09 13:21:32;;;;;;;;;;;;;;;16.27;nan;100956.63;5011941;28;20038;-36
2021/11/09 13:23:58;;;;;;;;;;;;;;;16.27;nan;100951.25;5009185;28;19924;-36
2021/11/09 13:26:23;;;;;;;;;;;;;;;16.28;nan;100969.06;5001821;28;20342;-35
2021/11/09 13:28:48;;;;;;;;;;;;;;;16.28;nan;100969.06;4993685;28;19916;-35
2021/11/09 13:31:15;;;;;;;;;;;;;;;16.28;nan;100969.06;4995777;28;19924;-36
2021/11/09 13:33:43;;;;;;;;;;;;;;;16.28;nan;100969.91;5003335;28;20390;-35
2021/11/09 13:36:09;;;;;;;;;;;;;;;16.29;nan;100965.41;5008142;28;20004;-35
2021/11/09 13:38:37;;;;;;;;;;;;;;;16.29;nan;100954.69;4996297;28;19956;-35
2021/11/09 13:41:05;;;;;;;;;;;;;;;16.30;nan;100956.44;5003615;28;19916;-35
2021/11/09 13:43:34;;;;;;;;;;;;;;;16.28;nan;100959.19;5000962;28;19936;-35
2021/11/09 13:46:04;;;;;;;;;;;;;;;16.29;nan;100965.41;5006912;28;19929;-35
2021/11/09 13:48:30;;;;;;;;;;;;;;;16.30;nan;100961.81;5008442;28;20377;-36
2021/11/09 13:50:58;;;;;;;;;;;;;;;16.31;nan;100958.16;4995545;28;19913;-35
2021/11/09 13:53:27;;;;;;;;;;;;;;;16.28;nan;100953.81;4996935;28;19951;-35
2021/11/09 13:55:53;;;;;;;;;;;;;;;16.31;nan;100960.84;4995315;28;20321;-36
2021/11/09 13:58:18;;;;;;;;;;;;;;;16.30;nan;100962.66;5014688;28;19920;-35
2021/11/09 14:00:49;;;;;;;;;;;;;;;16.29;nan;100958.25;5012409;28;19913;-35
2021/11/09 14:08:52;;;;;;;;;;;;;;;16.29;nan;100965.41;5059546;28;19919;-44
2021/11/09 14:19:03;;;;;;;;;;;;;;;16.28;nan;100963.69;5052344;28;20361;-43
2021/11/09 14:21:42;;;;;;;;;;;;;;;16.28;nan;100961.88;5070249;28;20411;-43
2021/11/09 14:24:12;;;;;;;;;;;;;;;16.28;nan;100969.06;5052900;28;20351;-44
2021/11/09 14:26:38;;;;;;;;;;;;;;;16.28;nan;100961.00;5052373;28;20373;-43
2021/11/09 14:29:14;;;;;;;;;;;;;;;16.28;nan;100961.88;5049063;28;20296;-45
2021/11/09 14:31:45;;;;;;;;;;;;;;;16.28;nan;100961.88;5051419;28;19913;-43
2021/11/09 14:34:12;;;;;;;;;;;;;;;16.28;nan;100964.56;5058912;28;20573;-43
2021/11/09 14:36:39;;;;;;;;;;;;;;;16.28;nan;100963.69;5070633;28;19954;-44
2021/11/09 14:39:25;;;;;;;;;;;;;;;16.28;nan;100969.06;5069933;28;20209;-43
2021/11/09 14:44:50;;;;;;;;;;;;;;;16.28;nan;100971.75;5051464;28;19970;-43
2021/11/09 14:47:16;;;;;;;;;;;;;;;16.29;nan;100981.50;5039940;28;19909;-45
2021/11/09 14:49:50;;;;;;;;;;;;;;;16.29;nan;100981.50;5031662;28;19917;-43
2021/11/09 14:52:19;;;;;;;;;;;;;;;16.29;nan;100986.88;5031650;28;20412;-43
2021/11/09 14:54:47;;;;;;;;;;;;;;;16.28;nan;100986.03;5033685;28;19913;-44
2021/11/09 14:57:13;;;;;;;;;;;;;;;16.29;nan;100984.19;5050367;28;20274;-43
2021/11/09 14:59:38;;;;;;;;;;;;;;;16.29;nan;100986.88;5051549;28;20427;-43
2021/11/09 15:02:07;;;;;;;;;;;;;;;16.28;nan;100991.38;5053406;28;19912;-45
2021/11/09 15:07:36;;;;;;;;;;;;;;;16.27;nan;100989.66;5033317;28;19908;-43
2021/11/09 15:39:44;;;;;;;;;;;;;;;16.25;nan;101030.94;4993602;28;19916;-44
2021/11/09 15:42:12;;;;;;;;;;;;;;;16.26;nan;101019.28;4999738;28;20418;-43
2021/11/09 15:44:38;;;;;;;;;;;;;;;16.24;nan;101027.41;4997378;28;19914;-45
2021/11/09 15:47:03;;;;;;;;;;;;;;;16.25;nan;101033.63;4993186;28;19997;-43
2021/11/09 15:49:29;;;;;;;;;;;;;;;16.24;nan;101038.13;4993856;28;20012;-43
2021/11/09 15:51:55;;;;;;;;;;;;;;;16.23;nan;101036.41;4992975;28;19917;-43
2021/11/09 15:54:21;;;;;;;;;;;;;;;16.22;nan;101044.56;4992914;28;19909;-43
2021/11/09 15:56:46;;;;;;;;;;;;;;;16.22;nan;101042.72;4994852;28;19914;-42
2021/11/09 15:59:11;;;;;;;;;;;;;;;16.21;nan;101042.81;5012281;28;20000;-42